Terminal Aerodrome Forecast
Issued by NWS Sioux Falls, SD

Home | Current Version | Previous Version | Graphics & Text | Print | Product List | Glossary On
Versions: 1 2 3 4 5 6 7 8 9 10 11 12 13 14
000
FTUS43 KFSD 190500
TAFFSD
TAF
KFSD 190522Z 1906/2006 16018G25KT P6SM BKN200
     FM191000 18012G18KT P6SM BKN150
     FM191600 21010KT P6SM SCT040 BKN120
     FM191900 30005KT P6SM -SHRA SCT040 OVC100
     FM200000 02004KT P6SM OVC080=

USA.gov is the U.S. government's official web portal to all federal, state and local government web resources and services.